コロンボ の空港の天気 - METARとTAF

バンダラナイケ国際空港 ( VCBI / CMB ) - スリランカ コロンボ
飛行場実況気象(Metar)
観測時間04/27 21:40 +0530 (04/27 16:10 UTC)
風向・風速南南西 4m/s
視程10km以上
天気現象
全天の4割程度の雲 雲底高度 550m
気温30℃
湿度75%
気圧1012hPa
METARVCBI 271610Z 21008KT 9999 SCT018 30/25 Q1012 NOSIG
過去の天気等 Google飛行場航空写真 Wunderground天気予報

過去48時間のMETAR

飛行場予報(TAF)
発表時間: 4/27 15:10 +0530 (4/27 09:40 UTC)
予報対象時間: 27日17時 +0530 ~ 28日23時 +0530
風向・風速西南西 5m/s
視程10km以上
全天の4割程度の雲 雲底高度 550m
27日17時 +0530 ~ 27日21時 +0530 に 確率 30% で一時的に
TAF VCBI 270940Z 2712/2818 24010KT 9999 SCT018 TX33/2807Z TN27/2800Z
PROB30 TEMPO 2712/2716 2723/2802 8000 -TSRA/-SHRA SCT016 FEW020CB